createdAt,value
2023-05-21T00:00:42.962Z,14.90
2023-05-21T00:03:14.043Z,14.80
2023-05-21T00:05:42.537Z,14.80
2023-05-21T00:08:10.970Z,14.70
2023-05-21T00:10:39.124Z,14.70
2023-05-21T00:13:08.958Z,14.70
2023-05-21T00:15:38.524Z,14.70
2023-05-21T00:18:07.227Z,14.70
2023-05-21T00:20:35.556Z,14.70
2023-05-21T00:23:04.102Z,14.70
2023-05-21T00:25:32.556Z,14.70
2023-05-21T00:28:00.740Z,14.60
2023-05-21T00:30:28.924Z,14.60
2023-05-21T00:33:02.503Z,14.60
2023-05-21T00:35:31.224Z,14.60
2023-05-21T00:38:00.611Z,14.60
2023-05-21T00:40:28.795Z,14.60
2023-05-21T00:42:57.246Z,14.60
2023-05-21T00:45:25.521Z,14.60
2023-05-21T00:47:55.565Z,14.50
2023-05-21T00:50:25.987Z,14.50
2023-05-21T00:52:54.370Z,14.60
2023-05-21T00:55:23.042Z,14.50
2023-05-21T00:57:51.519Z,14.40
2023-05-21T01:00:20.833Z,14.40
2023-05-21T01:02:49.939Z,14.40
2023-05-21T01:05:18.369Z,14.30
2023-05-21T01:07:48.310Z,14.30
2023-05-21T01:10:16.883Z,14.30
2023-05-21T01:12:47.306Z,14.30
2023-05-21T01:15:15.898Z,14.30
2023-05-21T01:17:46.075Z,14.30
2023-05-21T01:20:18.163Z,14.30
2023-05-21T01:22:54.339Z,14.30
2023-05-21T01:25:23.246Z,14.30
2023-05-21T01:27:51.856Z,14.30
2023-05-21T01:30:22.476Z,14.20
2023-05-21T01:33:03.520Z,14.20
2023-05-21T01:35:36.865Z,14.20
2023-05-21T01:38:17.503Z,14.20
2023-05-21T01:40:54.256Z,14.10
2023-05-21T01:43:25.171Z,14.20
2023-05-21T01:45:56.874Z,14.10
2023-05-21T01:48:28.238Z,14.00
2023-05-21T01:50:58.759Z,14.10
2023-05-21T01:53:28.476Z,14.00
2023-05-21T01:55:56.659Z,14.00
2023-05-21T01:58:24.900Z,13.90
2023-05-21T02:00:53.152Z,13.90
2023-05-21T02:03:22.038Z,14.00
2023-05-21T02:05:51.947Z,13.90
2023-05-21T02:08:20.601Z,13.90
2023-05-21T02:10:50.229Z,13.80
2023-05-21T02:13:20.369Z,13.80
2023-05-21T02:15:48.586Z,13.70
2023-05-21T02:18:18.416Z,13.70
2023-05-21T02:20:46.555Z,13.60
2023-05-21T02:23:14.750Z,13.50
2023-05-21T02:25:42.913Z,13.50
2023-05-21T02:28:12.812Z,13.50
2023-05-21T02:30:40.933Z,13.40
2023-05-21T02:33:09.681Z,13.40
2023-05-21T02:35:38.976Z,13.40
2023-05-21T02:38:09.160Z,13.30
2023-05-21T02:40:37.328Z,13.20
2023-05-21T02:43:05.443Z,13.30
2023-05-21T02:45:35.120Z,13.30
2023-05-21T02:48:03.539Z,13.30
2023-05-21T02:50:31.682Z,13.30
2023-05-21T02:53:00.217Z,13.30
2023-05-21T02:55:28.372Z,13.30
2023-05-21T02:57:56.564Z,13.30
2023-05-21T03:00:24.716Z,13.20
2023-05-21T03:02:54.444Z,13.30
2023-05-21T03:05:22.963Z,13.20
2023-05-21T03:07:51.339Z,13.30
2023-05-21T03:10:19.506Z,13.30
2023-05-21T03:12:48.118Z,13.30
2023-05-21T03:15:16.762Z,13.30
2023-05-21T03:17:45.043Z,13.30
2023-05-21T03:20:16.504Z,13.40
2023-05-21T03:22:45.777Z,13.30
2023-05-21T03:25:14.329Z,13.30
2023-05-21T03:27:42.664Z,13.30
2023-05-21T03:30:12.176Z,13.30
2023-05-21T03:32:41.364Z,13.30
2023-05-21T03:35:10.074Z,13.30
2023-05-21T03:37:39.628Z,13.30
2023-05-21T03:40:09.672Z,13.40
2023-05-21T03:42:37.827Z,13.40
2023-05-21T03:45:08.468Z,13.40
2023-05-21T03:47:36.945Z,13.30
2023-05-21T03:50:06.293Z,13.40
2023-05-21T03:52:34.564Z,13.40
2023-05-21T03:55:04.097Z,13.40
2023-05-21T03:57:32.353Z,13.40
2023-05-21T04:00:00.666Z,13.40
2023-05-21T04:02:29.105Z,13.50
2023-05-21T04:04:57.400Z,13.50
2023-05-21T04:07:27.165Z,13.50
2023-05-21T04:09:55.386Z,13.40
2023-05-21T04:12:24.869Z,13.60
2023-05-21T04:14:53.043Z,13.60
2023-05-21T04:17:21.688Z,13.70
2023-05-21T04:19:49.846Z,13.90
2023-05-21T04:22:17.988Z,14.00
2023-05-21T04:24:46.457Z,14.00
2023-05-21T04:27:16.584Z,14.10
2023-05-21T04:29:46.159Z,14.20
2023-05-21T04:32:15.241Z,14.30
2023-05-21T04:34:43.454Z,14.40
2023-05-21T04:37:12.046Z,14.40
2023-05-21T04:39:42.364Z,14.40
2023-05-21T04:42:11.055Z,14.50
2023-05-21T04:44:40.269Z,14.60
2023-05-21T04:47:10.310Z,14.60
2023-05-21T04:49:38.487Z,14.60
2023-05-21T04:52:08.244Z,14.70
2023-05-21T04:54:36.557Z,14.80
2023-05-21T04:57:04.814Z,14.90
2023-05-21T04:59:32.990Z,15.00
2023-05-21T05:02:01.305Z,15.00
2023-05-21T05:04:30.777Z,15.00
2023-05-21T05:06:59.000Z,15.00
2023-05-21T05:09:27.157Z,15.10
2023-05-21T05:11:55.456Z,15.10
2023-05-21T05:14:23.621Z,15.20
2023-05-21T05:16:51.811Z,15.20
2023-05-21T05:19:20.057Z,15.30
2023-05-21T05:21:49.544Z,15.30
2023-05-21T05:24:17.754Z,15.30
2023-05-21T05:26:47.033Z,15.40
2023-05-21T05:29:15.251Z,15.40
2023-05-21T05:31:43.382Z,15.50
2023-05-21T05:34:11.539Z,15.70
2023-05-21T05:36:39.709Z,15.80
2023-05-21T05:39:09.280Z,15.90
2023-05-21T05:41:37.388Z,16.10
2023-05-21T05:44:05.935Z,16.30
2023-05-21T05:46:34.126Z,16.50
2023-05-21T05:49:02.301Z,16.80
2023-05-21T05:51:30.990Z,17.00
2023-05-21T05:53:59.184Z,17.30
2023-05-21T05:56:28.613Z,17.50
2023-05-21T05:58:56.736Z,17.70
2023-05-21T06:01:26.186Z,17.80
2023-05-21T06:03:54.480Z,17.90
2023-05-21T06:06:22.574Z,18.10
2023-05-21T06:08:50.738Z,18.20
2023-05-21T06:11:19.109Z,18.20
2023-05-21T06:13:48.778Z,18.40
2023-05-21T06:16:16.928Z,18.60
2023-05-21T06:18:45.125Z,18.70
2023-05-21T06:21:13.238Z,18.70
2023-05-21T06:23:41.691Z,18.80
2023-05-21T06:26:09.801Z,18.70
2023-05-21T06:28:37.891Z,18.80
2023-05-21T06:31:07.399Z,18.80
2023-05-21T06:33:35.573Z,18.80
2023-05-21T06:36:03.816Z,18.90
2023-05-21T06:38:31.889Z,18.90
2023-05-21T06:41:00.004Z,18.90
2023-05-21T06:43:28.727Z,18.90
2023-05-21T06:45:56.889Z,19.00
2023-05-21T06:48:26.314Z,19.10
2023-05-21T06:50:54.410Z,19.10
2023-05-21T06:53:22.475Z,19.20
2023-05-21T06:55:53.572Z,19.40
2023-05-21T06:58:22.244Z,19.50
2023-05-21T07:00:50.417Z,19.70
2023-05-21T07:03:18.572Z,19.80
2023-05-21T07:05:48.398Z,19.90
2023-05-21T07:08:16.777Z,20.10
2023-05-21T07:10:45.036Z,20.10
2023-05-21T07:13:13.333Z,20.20
2023-05-21T07:15:41.380Z,20.40
2023-05-21T07:18:09.499Z,20.60
2023-05-21T07:20:37.602Z,20.70
2023-05-21T07:23:07.093Z,20.80
2023-05-21T07:25:35.605Z,20.90
2023-05-21T07:28:06.423Z,21.10
2023-05-21T07:30:34.796Z,21.00
2023-05-21T07:33:02.973Z,21.00
2023-05-21T07:35:31.095Z,21.10
2023-05-21T07:37:59.224Z,21.00
2023-05-21T07:40:28.699Z,21.00
2023-05-21T07:42:56.850Z,21.00
2023-05-21T07:45:25.144Z,20.90
2023-05-21T07:47:53.323Z,21.00
2023-05-21T07:50:22.275Z,21.00
2023-05-21T07:52:50.559Z,21.00
2023-05-21T07:55:18.799Z,21.00
2023-05-21T07:57:48.196Z,21.00
2023-05-21T08:00:17.157Z,21.10
2023-05-21T08:02:45.506Z,21.20
2023-05-21T08:05:13.778Z,21.30
2023-05-21T08:07:41.847Z,21.40
2023-05-21T08:10:10.602Z,21.40
2023-05-21T08:12:38.699Z,21.40
2023-05-21T08:15:09.608Z,21.50
2023-05-21T08:17:37.685Z,21.60
2023-05-21T08:20:07.259Z,21.60
2023-05-21T08:22:35.348Z,21.70
2023-05-21T08:25:03.458Z,21.70
2023-05-21T08:27:31.537Z,21.80
2023-05-21T08:29:59.540Z,21.90
2023-05-21T08:32:28.957Z,22.00
2023-05-21T08:34:57.587Z,22.00
2023-05-21T08:37:25.738Z,21.90
2023-05-21T08:39:53.778Z,22.00
2023-05-21T08:42:43.390Z,22.10
2023-05-21T08:45:14.617Z,22.20
2023-05-21T08:47:46.515Z,22.30
2023-05-21T08:50:19.134Z,22.40
2023-05-21T08:52:47.984Z,22.40
2023-05-21T08:55:17.525Z,22.50
2023-05-21T08:57:46.133Z,22.50
2023-05-21T09:00:15.670Z,22.60
2023-05-21T09:02:46.383Z,22.60
2023-05-21T09:05:16.386Z,22.70
2023-05-21T09:07:52.608Z,22.80
2023-05-21T09:10:27.919Z,22.80
2023-05-21T09:12:56.328Z,22.90
2023-05-21T09:15:24.760Z,23.00
2023-05-21T09:17:54.660Z,23.00
2023-05-21T09:20:26.835Z,23.10
2023-05-21T09:22:55.688Z,23.10
2023-05-21T09:25:28.127Z,23.20
2023-05-21T09:27:58.029Z,23.30
2023-05-21T09:30:29.566Z,23.30
2023-05-21T09:33:01.558Z,23.30
2023-05-21T09:35:30.331Z,23.40
2023-05-21T09:37:58.414Z,23.50
2023-05-21T09:40:26.494Z,23.50
2023-05-21T09:42:56.177Z,23.60
2023-05-21T09:45:26.814Z,23.70
2023-05-21T09:47:56.760Z,23.90
2023-05-21T09:50:28.633Z,23.90
2023-05-21T09:52:58.169Z,23.90
2023-05-21T09:55:27.879Z,23.90
2023-05-21T09:57:56.089Z,24.00
2023-05-21T10:00:27.472Z,24.00
2023-05-21T10:02:57.915Z,24.10
2023-05-21T10:05:29.084Z,24.20
2023-05-21T10:08:02.966Z,24.20
2023-05-21T10:10:33.582Z,24.30
2023-05-21T10:13:07.601Z,24.40
2023-05-21T10:15:40.066Z,24.50
2023-05-21T10:18:12.022Z,24.60
2023-05-21T10:20:42.681Z,24.60
2023-05-21T10:23:12.876Z,24.70
2023-05-21T10:25:42.798Z,24.70
2023-05-21T10:28:11.647Z,24.90
2023-05-21T10:30:40.267Z,25.00
2023-05-21T10:33:09.228Z,25.00
2023-05-21T10:35:41.662Z,25.20
2023-05-21T10:38:11.023Z,25.40
2023-05-21T10:40:39.277Z,25.40
2023-05-21T10:43:39.854Z,25.60
2023-05-21T10:47:06.700Z,25.50
2023-05-21T10:50:11.228Z,25.60
2023-05-21T10:53:04.302Z,25.60
2023-05-21T10:55:53.538Z,25.60
2023-05-21T10:59:33.092Z,25.60
2023-05-21T11:02:01.901Z,25.80
2023-05-21T11:04:30.508Z,25.90
2023-05-21T11:07:00.533Z,26.00
2023-05-21T11:09:29.974Z,26.00
2023-05-21T11:12:00.930Z,26.00
2023-05-21T11:14:34.863Z,26.00
2023-05-21T11:17:04.706Z,26.00
2023-05-21T11:19:38.463Z,26.00
2023-05-21T11:22:11.824Z,26.10
2023-05-21T11:24:42.674Z,26.20
2023-05-21T11:27:12.368Z,26.40
2023-05-21T11:29:47.124Z,26.50
2023-05-21T11:32:17.274Z,26.70
2023-05-21T11:34:47.771Z,26.90
2023-05-21T11:37:30.955Z,27.00
2023-05-21T11:40:25.935Z,27.20
2023-05-21T11:42:56.089Z,27.30
2023-05-21T11:45:29.388Z,27.50
2023-05-21T11:47:58.354Z,27.50
2023-05-21T11:50:27.292Z,27.50
2023-05-21T11:52:55.972Z,27.60
2023-05-21T11:55:26.166Z,27.70
2023-05-21T11:57:56.432Z,27.70
2023-05-21T12:00:24.656Z,27.60
2023-05-21T12:02:55.792Z,27.40
2023-05-21T12:05:25.057Z,27.40
2023-05-21T12:07:54.585Z,27.40
2023-05-21T12:10:23.996Z,27.40
2023-05-21T12:12:56.598Z,27.40
2023-05-21T12:15:27.884Z,27.40
2023-05-21T12:17:57.824Z,27.40
2023-05-21T12:20:28.905Z,27.50
2023-05-21T12:23:00.080Z,27.50
2023-05-21T12:25:29.811Z,27.60
2023-05-21T12:28:01.339Z,27.60
2023-05-21T12:30:30.685Z,27.60
2023-05-21T12:33:01.974Z,27.60
2023-05-21T12:35:32.099Z,27.60
2023-05-21T12:38:03.210Z,27.70
2023-05-21T12:40:39.431Z,27.80
2023-05-21T12:43:09.800Z,27.80
2023-05-21T12:45:40.549Z,27.80
2023-05-21T12:48:09.440Z,27.80
2023-05-21T12:50:41.748Z,27.70
2023-05-21T12:53:11.913Z,27.70
2023-05-21T12:55:40.405Z,27.70
2023-05-21T12:58:09.857Z,27.60
2023-05-21T13:00:38.603Z,27.70
2023-05-21T13:03:07.390Z,27.70
2023-05-21T13:05:36.068Z,27.70
2023-05-21T13:08:04.518Z,27.60
2023-05-21T13:10:32.651Z,27.60
2023-05-21T13:13:01.629Z,27.50
2023-05-21T13:15:31.100Z,27.40
2023-05-21T13:18:01.110Z,27.40
2023-05-21T13:20:29.782Z,27.40
2023-05-21T13:22:57.891Z,27.40
2023-05-21T13:25:29.491Z,27.60
2023-05-21T13:27:58.770Z,27.60
2023-05-21T13:30:26.979Z,27.70
2023-05-21T13:32:56.637Z,27.90
2023-05-21T13:35:24.800Z,28.00
2023-05-21T13:37:52.897Z,27.90
2023-05-21T13:40:23.719Z,27.90
2023-05-21T13:42:51.900Z,27.90
2023-05-21T13:45:21.778Z,27.90
2023-05-21T13:47:50.286Z,28.10
2023-05-21T13:50:19.784Z,28.20
2023-05-21T13:52:47.863Z,28.00
2023-05-21T13:55:16.714Z,28.00
2023-05-21T13:57:45.637Z,28.00
2023-05-21T14:00:16.010Z,27.90
2023-05-21T14:02:45.206Z,27.90
2023-05-21T14:05:13.935Z,27.90
2023-05-21T14:07:43.453Z,27.70
2023-05-21T14:10:12.643Z,27.70
2023-05-21T14:12:40.891Z,27.70
2023-05-21T14:15:10.643Z,27.70
2023-05-21T14:17:40.157Z,27.60
2023-05-21T14:20:11.068Z,27.50
2023-05-21T14:22:39.699Z,27.60
2023-05-21T14:25:10.307Z,27.50
2023-05-21T14:27:38.771Z,27.60
2023-05-21T14:30:08.544Z,27.60
2023-05-21T14:32:36.722Z,27.60
2023-05-21T14:35:06.590Z,27.60
2023-05-21T14:37:34.725Z,27.60
2023-05-21T14:40:03.107Z,27.50
2023-05-21T14:42:32.577Z,27.40
2023-05-21T14:45:16.975Z,27.40
2023-05-21T14:47:47.548Z,27.40
2023-05-21T14:50:18.422Z,27.30
2023-05-21T14:52:47.047Z,27.30
2023-05-21T14:55:16.739Z,27.30
2023-05-21T14:57:46.398Z,27.30
2023-05-21T15:00:15.311Z,27.20
2023-05-21T15:02:43.511Z,27.20
2023-05-21T15:05:11.822Z,27.10
2023-05-21T15:07:39.961Z,27.10
2023-05-21T15:10:10.433Z,27.00
2023-05-21T15:12:38.546Z,27.00
2023-05-21T15:15:09.703Z,27.10
2023-05-21T15:17:37.916Z,27.00
2023-05-21T15:20:07.721Z,27.00
2023-05-21T15:22:36.303Z,26.90
2023-05-21T15:25:05.925Z,26.90
2023-05-21T15:27:34.604Z,26.90
2023-05-21T15:30:02.969Z,26.90
2023-05-21T15:32:32.465Z,26.90
2023-05-21T15:35:00.719Z,26.90
2023-05-21T15:37:32.023Z,26.80
2023-05-21T15:40:00.313Z,26.80
2023-05-21T15:42:31.238Z,26.80
2023-05-21T15:44:59.395Z,26.80
2023-05-21T15:47:27.591Z,26.80
2023-05-21T15:49:58.606Z,26.70
2023-05-21T15:52:26.902Z,26.70
2023-05-21T15:54:54.960Z,26.70
2023-05-21T15:57:23.023Z,26.60
2023-05-21T15:59:52.468Z,26.50
2023-05-21T16:02:20.893Z,26.40
2023-05-21T16:04:49.963Z,26.30
2023-05-21T16:07:19.521Z,26.20
2023-05-21T16:09:47.583Z,26.10
2023-05-21T16:12:15.688Z,26.00
2023-05-21T16:14:43.745Z,25.90
2023-05-21T16:17:11.927Z,25.90
2023-05-21T16:19:40.448Z,25.70
2023-05-21T16:22:10.630Z,25.60
2023-05-21T16:24:40.321Z,25.60
2023-05-21T16:27:08.394Z,25.60
2023-05-21T16:29:37.598Z,25.50
2023-05-21T16:32:08.112Z,25.50
2023-05-21T16:34:36.254Z,25.40
2023-05-21T16:37:04.418Z,25.30
2023-05-21T16:39:32.548Z,25.10
2023-05-21T16:42:02.200Z,25.00
2023-05-21T16:44:31.691Z,25.00
2023-05-21T16:47:01.862Z,25.00
2023-05-21T16:49:29.912Z,24.90
2023-05-21T16:51:57.984Z,24.90
2023-05-21T16:54:26.276Z,24.90
2023-05-21T16:56:55.234Z,24.80
2023-05-21T16:59:24.709Z,24.70
2023-05-21T17:01:52.862Z,24.70
2023-05-21T17:04:21.009Z,24.60
2023-05-21T17:06:49.080Z,24.60
2023-05-21T17:09:18.728Z,24.50
2023-05-21T17:11:46.991Z,24.40
2023-05-21T17:14:23.248Z,24.40
2023-05-21T17:17:02.366Z,24.30
2023-05-21T17:19:30.640Z,24.20
2023-05-21T17:21:59.017Z,24.30
2023-05-21T17:24:27.183Z,24.20
2023-05-21T17:26:55.430Z,24.00
2023-05-21T17:29:23.617Z,24.10
2023-05-21T17:31:51.940Z,24.00
2023-05-21T17:34:24.536Z,24.00
2023-05-21T17:36:52.746Z,23.90
2023-05-21T17:39:21.156Z,23.90
2023-05-21T17:41:49.525Z,23.90
2023-05-21T17:44:19.131Z,23.80
2023-05-21T17:46:47.770Z,23.70
2023-05-21T17:49:16.105Z,23.70
2023-05-21T17:51:46.460Z,23.60
2023-05-21T17:54:14.962Z,23.60
2023-05-21T17:56:46.167Z,23.50
2023-05-21T17:59:15.880Z,23.30
2023-05-21T18:01:44.122Z,23.30
2023-05-21T18:04:13.272Z,23.20
2023-05-21T18:06:41.573Z,23.10
2023-05-21T18:09:14.197Z,23.00
2023-05-21T18:11:44.544Z,23.00
2023-05-21T18:14:12.813Z,22.90
2023-05-21T18:16:41.272Z,22.80
2023-05-21T18:19:09.540Z,22.80
2023-05-21T18:21:38.997Z,22.70
2023-05-21T18:24:08.474Z,22.70
2023-05-21T18:26:37.964Z,22.60
2023-05-21T18:29:06.138Z,22.50
2023-05-21T18:31:34.468Z,22.50
2023-05-21T18:34:02.660Z,22.40
2023-05-21T18:36:38.328Z,22.40
2023-05-21T18:39:07.728Z,22.30
2023-05-21T18:41:37.724Z,22.20
2023-05-21T18:44:06.903Z,22.10
2023-05-21T18:46:35.135Z,22.10
2023-05-21T18:49:03.364Z,21.90
2023-05-21T18:51:31.488Z,21.80
2023-05-21T18:53:59.751Z,21.70
2023-05-21T18:56:27.903Z,21.70
2023-05-21T18:58:57.397Z,21.60
2023-05-21T19:01:25.666Z,21.50
2023-05-21T19:03:53.828Z,21.50
2023-05-21T19:06:25.352Z,21.40
2023-05-21T19:08:53.698Z,21.40
2023-05-21T19:11:23.570Z,21.30
2023-05-21T19:13:51.953Z,21.20
2023-05-21T19:16:21.490Z,21.20
2023-05-21T19:18:49.757Z,21.10
2023-05-21T19:21:18.246Z,21.10
2023-05-21T19:23:53.094Z,21.00
2023-05-21T19:26:22.811Z,21.10
2023-05-21T19:28:53.416Z,21.00
2023-05-21T19:31:25.192Z,20.90
2023-05-21T19:33:53.582Z,20.80
2023-05-21T19:36:23.010Z,20.80
2023-05-21T19:38:51.918Z,20.80
2023-05-21T19:41:22.585Z,20.70
2023-05-21T19:43:51.018Z,20.60
2023-05-21T19:46:20.601Z,20.50
2023-05-21T19:48:51.849Z,20.50
2023-05-21T19:51:20.124Z,20.50
2023-05-21T19:53:48.298Z,20.40
2023-05-21T19:56:17.005Z,20.40
2023-05-21T19:58:47.329Z,20.40
2023-05-21T20:01:16.717Z,20.40
2023-05-21T20:03:45.491Z,20.40
2023-05-21T20:06:18.777Z,20.30
2023-05-21T20:08:47.439Z,20.30
2023-05-21T20:11:15.775Z,20.30
2023-05-21T20:13:48.501Z,20.20
2023-05-21T20:16:18.226Z,20.20
2023-05-21T20:18:47.266Z,20.20
2023-05-21T20:21:18.336Z,20.30
2023-05-21T20:23:47.044Z,20.20
2023-05-21T20:26:15.979Z,20.20
2023-05-21T20:28:44.443Z,20.20
2023-05-21T20:31:12.962Z,20.10
2023-05-21T20:33:41.847Z,20.20
2023-05-21T20:36:10.034Z,20.10
2023-05-21T20:38:42.017Z,20.20
2023-05-21T20:41:10.222Z,20.20
2023-05-21T20:43:38.408Z,20.20
2023-05-21T20:46:07.657Z,20.20
2023-05-21T20:48:37.668Z,20.20
2023-05-21T20:51:06.864Z,20.10
2023-05-21T20:53:35.038Z,20.10
2023-05-21T20:56:08.192Z,20.10
2023-05-21T20:58:36.609Z,20.00
2023-05-21T21:01:04.765Z,20.00
2023-05-21T21:03:34.198Z,19.90
2023-05-21T21:06:03.169Z,19.90
2023-05-21T21:08:31.471Z,19.90
2023-05-21T21:10:59.721Z,19.80
2023-05-21T21:13:29.178Z,19.80
2023-05-21T21:15:57.415Z,19.80
2023-05-21T21:18:25.573Z,19.90
2023-05-21T21:20:54.446Z,19.90
2023-05-21T21:23:24.415Z,19.90
2023-05-21T21:25:52.683Z,19.90
2023-05-21T21:28:20.856Z,19.80
2023-05-21T21:30:50.406Z,19.80
2023-05-21T21:33:18.640Z,19.80
2023-05-21T21:35:47.017Z,19.80
2023-05-21T21:38:15.139Z,19.80
2023-05-21T21:40:43.316Z,19.70
2023-05-21T21:43:11.645Z,19.60
2023-05-21T21:45:39.826Z,19.70
2023-05-21T21:48:09.601Z,19.70
2023-05-21T21:50:37.937Z,19.70
2023-05-21T21:53:06.354Z,19.70
2023-05-21T21:55:34.519Z,19.60
2023-05-21T21:58:02.652Z,19.60
2023-05-21T22:00:30.791Z,19.60
2023-05-21T22:02:58.974Z,19.60
2023-05-21T22:05:31.334Z,19.50
2023-05-21T22:07:59.540Z,19.50
2023-05-21T22:10:27.722Z,19.40
2023-05-21T22:12:56.285Z,19.40
2023-05-21T22:15:27.385Z,19.30
2023-05-21T22:17:55.809Z,19.30
2023-05-21T22:20:25.955Z,19.40
2023-05-21T22:22:55.571Z,19.30
2023-05-21T22:25:24.000Z,19.30
2023-05-21T22:27:52.538Z,19.20
2023-05-21T22:30:21.238Z,19.10
2023-05-21T22:32:49.704Z,19.10
2023-05-21T22:35:17.993Z,19.20
2023-05-21T22:37:46.629Z,19.10
2023-05-21T22:40:16.373Z,19.10
2023-05-21T22:42:47.189Z,19.00
2023-05-21T22:45:16.284Z,18.90
2023-05-21T22:47:44.604Z,18.90
2023-05-21T22:50:12.797Z,18.90
2023-05-21T22:52:41.851Z,18.80
2023-05-21T22:55:11.528Z,18.80
2023-05-21T22:57:41.112Z,18.80
2023-05-21T23:00:11.559Z,18.70
2023-05-21T23:02:39.771Z,18.70
2023-05-21T23:05:08.767Z,18.60
2023-05-21T23:07:36.925Z,18.60
2023-05-21T23:10:06.022Z,18.60
2023-05-21T23:12:34.164Z,18.60
2023-05-21T23:15:05.377Z,18.60
2023-05-21T23:17:33.608Z,18.50
2023-05-21T23:20:01.808Z,18.50
2023-05-21T23:22:30.783Z,18.40
2023-05-21T23:24:58.923Z,18.40
2023-05-21T23:27:27.078Z,18.40
2023-05-21T23:29:55.684Z,18.30
2023-05-21T23:32:25.781Z,18.40
2023-05-21T23:34:54.076Z,18.40
2023-05-21T23:37:22.670Z,18.40
2023-05-21T23:39:51.451Z,18.30
2023-05-21T23:42:20.319Z,18.30
2023-05-21T23:44:48.430Z,18.20
2023-05-21T23:47:16.694Z,18.20
2023-05-21T23:49:46.170Z,18.30
2023-05-21T23:52:17.222Z,18.20
2023-05-21T23:54:45.990Z,18.20
2023-05-21T23:57:14.286Z,18.20
2023-05-21T23:59:42.477Z,18.10
